createdAt,value
2022-11-01T00:05:15.417Z,78
2022-11-01T00:15:23.264Z,79
2022-11-01T00:25:31.303Z,79
2022-11-01T00:35:39.417Z,79
2022-11-01T00:45:47.803Z,80
2022-11-01T00:55:55.737Z,81
2022-11-01T01:06:03.743Z,80
2022-11-01T01:16:11.808Z,81
2022-11-01T01:26:19.748Z,80
2022-11-01T01:36:27.707Z,78
2022-11-01T01:46:35.644Z,76
2022-11-01T01:56:43.585Z,76
2022-11-01T02:06:51.383Z,76
2022-11-01T02:16:59.326Z,76
2022-11-01T02:27:06.334Z,76
2022-11-01T02:37:14.272Z,76
2022-11-01T02:47:22.210Z,77
2022-11-01T02:57:30.090Z,77
2022-11-01T03:07:37.920Z,78
2022-11-01T03:17:46.787Z,77
2022-11-01T03:27:54.602Z,77
2022-11-01T03:38:02.566Z,77
2022-11-01T03:48:10.538Z,77
2022-11-01T03:58:18.514Z,77
2022-11-01T04:08:26.552Z,77
2022-11-01T04:18:34.436Z,77
2022-11-01T04:28:43.516Z,78
2022-11-01T04:38:51.418Z,78
2022-11-01T04:48:59.295Z,79
2022-11-01T04:59:07.309Z,79
2022-11-01T05:09:15.278Z,79
2022-11-01T05:19:23.159Z,80
2022-11-01T05:29:33.117Z,80
2022-11-01T05:39:38.213Z,79
2022-11-01T05:49:46.144Z,78
2022-11-01T05:59:54.159Z,79
2022-11-01T06:10:02.206Z,78
2022-11-01T06:20:10.152Z,78
2022-11-01T06:30:18.022Z,78
2022-11-01T06:40:26.012Z,79
2022-11-01T06:50:33.964Z,80
2022-11-01T07:00:41.861Z,79
2022-11-01T07:10:49.718Z,78
2022-11-01T07:20:57.481Z,78
2022-11-01T07:31:05.460Z,77
2022-11-01T07:41:13.302Z,69
2022-11-01T07:51:21.319Z,65
2022-11-01T08:01:29.313Z,62
2022-11-01T08:11:37.242Z,59
2022-11-01T08:21:45.171Z,58
2022-11-01T08:31:53.221Z,59
2022-11-01T08:42:00.973Z,58
2022-11-01T08:52:08.969Z,56
2022-11-01T09:02:17.122Z,55
2022-11-01T09:12:24.840Z,55
2022-11-01T09:22:35.289Z,56
2022-11-01T09:32:32.226Z,54
2022-11-01T09:42:40.264Z,53
2022-11-01T09:52:48.237Z,52
2022-11-01T10:02:56.273Z,51
2022-11-01T10:13:05.225Z,50
2022-11-01T10:23:14.228Z,48
2022-11-01T10:33:22.086Z,47
2022-11-01T10:43:30.138Z,46
2022-11-01T10:53:38.071Z,46
2022-11-01T11:03:46.011Z,45
2022-11-01T11:13:53.959Z,44
2022-11-01T11:24:01.815Z,45
2022-11-01T11:34:09.835Z,49
2022-11-01T11:44:17.809Z,54
2022-11-01T11:54:25.861Z,55
2022-11-01T12:04:33.976Z,57
2022-11-01T12:14:41.926Z,58
2022-11-01T12:24:51.072Z,58
2022-11-01T12:34:59.135Z,58
2022-11-01T12:45:07.169Z,58
2022-11-01T12:55:16.492Z,57
2022-11-01T13:05:21.655Z,58
2022-11-01T13:15:29.279Z,59
2022-11-01T13:25:38.388Z,59
2022-11-01T13:35:46.426Z,59
2022-11-01T13:45:54.269Z,59
2022-11-01T13:56:05.109Z,59
2022-11-01T14:06:03.130Z,58
2022-11-01T14:16:11.106Z,57
2022-11-01T14:26:19.218Z,58
2022-11-01T14:36:27.232Z,58
2022-11-01T14:46:36.945Z,58
2022-11-01T14:56:42.487Z,58
2022-11-01T15:06:50.674Z,57
2022-11-01T15:16:58.711Z,58
2022-11-01T15:27:06.583Z,56
2022-11-01T15:37:15.830Z,55
2022-11-01T15:47:24.044Z,55
2022-11-01T15:57:32.529Z,56
2022-11-01T16:07:40.548Z,56
2022-11-01T16:17:50.281Z,57
2022-11-01T16:27:57.751Z,60
2022-11-01T16:38:05.863Z,62
2022-11-01T16:48:13.827Z,65
2022-11-01T16:58:22.112Z,66
2022-11-01T17:08:30.773Z,67
2022-11-01T17:18:31.196Z,68
2022-11-01T17:28:33.365Z,68
2022-11-01T17:38:31.037Z,68
2022-11-01T17:48:39.652Z,69
2022-11-01T17:58:52.002Z,70
2022-11-01T18:08:50.292Z,70
2022-11-01T18:18:51.537Z,70
2022-11-01T18:29:00.313Z,69
2022-11-01T18:39:08.555Z,69
2022-11-01T18:49:16.677Z,71
2022-11-01T18:59:25.134Z,70
2022-11-01T19:09:33.106Z,70
2022-11-01T19:19:33.789Z,70
2022-11-01T19:29:43.558Z,71
2022-11-01T19:39:51.084Z,72
2022-11-01T19:50:00.396Z,72
2022-11-01T20:00:05.666Z,72
2022-11-01T20:10:13.845Z,73
2022-11-01T20:20:23.344Z,73
2022-11-01T20:30:32.391Z,74
2022-11-01T20:40:34.083Z,74
2022-11-01T20:50:42.062Z,75
2022-11-01T21:00:50.179Z,75
2022-11-01T21:10:58.174Z,74
2022-11-01T21:21:05.998Z,74
2022-11-01T21:31:13.947Z,74
2022-11-01T21:41:22.420Z,74
2022-11-01T21:51:30.491Z,74
2022-11-01T22:01:38.432Z,76
2022-11-01T22:11:46.185Z,76
2022-11-01T22:21:54.195Z,76
2022-11-01T22:32:02.160Z,76
2022-11-01T22:42:10.066Z,77
2022-11-01T22:52:17.936Z,76
2022-11-01T23:02:25.907Z,77
2022-11-01T23:12:33.773Z,77
2022-11-01T23:22:41.699Z,78
2022-11-01T23:32:49.577Z,78
2022-11-01T23:42:57.498Z,77
2022-11-01T23:53:05.205Z,76
